createdAt,value
2023-01-06T00:01:18.815Z,10.39
2023-01-06T00:03:51.460Z,10.39
2023-01-06T00:06:19.712Z,10.43
2023-01-06T00:08:46.811Z,10.49
2023-01-06T00:11:15.142Z,10.54
2023-01-06T00:13:42.545Z,10.49
2023-01-06T00:16:16.709Z,10.43
2023-01-06T00:18:43.951Z,10.45
2023-01-06T00:21:12.590Z,10.44
2023-01-06T00:23:40.371Z,10.42
2023-01-06T00:26:09.507Z,10.41
2023-01-06T00:28:36.729Z,10.38
2023-01-06T00:31:13.372Z,10.36
2023-01-06T00:33:41.181Z,10.37
2023-01-06T00:36:10.005Z,10.40
2023-01-06T00:38:40.928Z,10.39
2023-01-06T00:41:29.699Z,10.42
2023-01-06T00:43:58.166Z,10.45
2023-01-06T00:46:29.650Z,10.39
2023-01-06T00:49:06.658Z,10.33
2023-01-06T00:51:37.024Z,10.37
2023-01-06T00:54:06.052Z,10.39
2023-01-06T00:56:36.748Z,10.37
2023-01-06T00:59:04.116Z,10.39
2023-01-06T01:01:31.283Z,10.39
2023-01-06T01:03:58.467Z,10.36
2023-01-06T01:06:25.687Z,10.38
2023-01-06T01:08:58.011Z,10.36
2023-01-06T01:11:44.342Z,10.31
2023-01-06T01:14:12.561Z,10.33
2023-01-06T01:16:40.205Z,10.34
2023-01-06T01:19:07.537Z,10.35
2023-01-06T01:21:34.954Z,10.39
2023-01-06T01:24:02.087Z,10.44
2023-01-06T01:26:29.156Z,10.47
2023-01-06T01:28:56.960Z,10.50
2023-01-06T01:31:24.189Z,10.49
2023-01-06T01:33:51.279Z,10.55
2023-01-06T01:36:19.551Z,10.59
2023-01-06T01:38:46.645Z,10.60
2023-01-06T01:41:16.666Z,10.67
2023-01-06T01:43:52.253Z,10.62
2023-01-06T01:46:31.545Z,10.64
2023-01-06T01:49:07.255Z,10.67
2023-01-06T01:51:41.219Z,10.70
2023-01-06T01:54:15.989Z,10.70
2023-01-06T01:56:47.777Z,10.66
2023-01-06T01:59:18.911Z,10.61
2023-01-06T02:01:47.469Z,10.58
2023-01-06T02:04:16.405Z,10.58
2023-01-06T02:06:46.398Z,10.60
2023-01-06T02:09:26.517Z,10.62
2023-01-06T02:11:54.622Z,10.60
2023-01-06T02:14:27.921Z,10.57
2023-01-06T02:17:14.576Z,10.55
2023-01-06T02:20:03.364Z,10.51
2023-01-06T02:22:52.441Z,10.51
2023-01-06T02:25:46.272Z,10.56
2023-01-06T02:28:47.069Z,10.58
2023-01-06T02:31:47.811Z,10.55
2023-01-06T02:34:33.784Z,10.52
2023-01-06T02:37:00.900Z,10.47
2023-01-06T02:39:53.127Z,10.39
2023-01-06T02:42:42.205Z,10.39
2023-01-06T02:45:21.704Z,10.33
2023-01-06T02:47:55.811Z,10.26
2023-01-06T02:50:34.958Z,10.25
2023-01-06T02:53:16.333Z,10.22
2023-01-06T02:55:49.790Z,10.15
2023-01-06T02:58:27.211Z,10.16
2023-01-06T03:01:07.644Z,10.17
2023-01-06T03:03:38.390Z,10.20
2023-01-06T03:06:13.931Z,10.18
2023-01-06T03:08:43.049Z,10.12
2023-01-06T03:11:10.365Z,10.13
2023-01-06T03:13:56.337Z,10.04
2023-01-06T03:16:23.888Z,10.10
2023-01-06T03:18:52.913Z,10.08
2023-01-06T03:21:25.728Z,10.11
2023-01-06T03:23:53.305Z,10.18
2023-01-06T03:26:20.538Z,10.16
2023-01-06T03:28:47.602Z,10.07
2023-01-06T03:31:31.169Z,10.09
2023-01-06T03:34:20.268Z,10.08
2023-01-06T03:37:25.019Z,10.15
2023-01-06T03:40:12.080Z,10.10
2023-01-06T03:43:18.857Z,10.07
2023-01-06T03:45:52.889Z,10.05
2023-01-06T03:48:26.937Z,10.07
2023-01-06T03:51:14.229Z,10.07
2023-01-06T03:53:42.542Z,10.05
2023-01-06T03:56:17.982Z,9.99
2023-01-06T03:58:49.024Z,9.99
2023-01-06T04:01:17.483Z,10.00
2023-01-06T04:03:47.117Z,9.99
2023-01-06T04:06:14.735Z,10.03
2023-01-06T04:08:43.196Z,10.03
2023-01-06T04:11:31.264Z,9.99
2023-01-06T04:13:58.385Z,10.01
2023-01-06T04:16:25.878Z,10.01
2023-01-06T04:18:53.105Z,9.96
2023-01-06T04:21:20.384Z,10.00
2023-01-06T04:23:48.082Z,9.98
2023-01-06T04:26:15.771Z,9.95
2023-01-06T04:28:49.606Z,9.89
2023-01-06T04:31:16.975Z,9.88
2023-01-06T04:33:45.532Z,9.90
2023-01-06T04:36:13.064Z,9.88
2023-01-06T04:38:43.517Z,9.90
2023-01-06T04:41:10.534Z,9.87
2023-01-06T04:43:37.801Z,9.85
2023-01-06T04:46:05.266Z,9.86
2023-01-06T04:48:32.385Z,9.84
2023-01-06T04:51:06.118Z,9.76
2023-01-06T04:53:35.294Z,9.65
2023-01-06T04:56:04.571Z,9.61
2023-01-06T04:58:31.893Z,9.74
2023-01-06T05:01:03.712Z,9.75
2023-01-06T05:03:30.475Z,9.74
2023-01-06T05:06:01.492Z,9.74
2023-01-06T05:08:28.325Z,9.72
2023-01-06T05:11:08.992Z,9.78
2023-01-06T05:13:36.515Z,9.78
2023-01-06T05:16:08.200Z,9.79
2023-01-06T05:18:35.201Z,9.77
2023-01-06T05:21:02.216Z,9.79
2023-01-06T05:23:28.881Z,9.81
2023-01-06T05:25:55.630Z,9.79
2023-01-06T05:28:22.581Z,9.81
2023-01-06T05:30:49.492Z,9.78
2023-01-06T05:33:16.241Z,9.75
2023-01-06T05:35:42.980Z,9.76
2023-01-06T05:38:09.612Z,9.76
2023-01-06T05:40:36.484Z,9.69
2023-01-06T05:43:03.240Z,9.73
2023-01-06T05:45:30.018Z,9.70
2023-01-06T05:47:58.100Z,9.71
2023-01-06T05:50:24.999Z,9.79
2023-01-06T05:52:51.846Z,9.79
2023-01-06T05:55:18.848Z,9.75
2023-01-06T05:57:47.960Z,9.62
2023-01-06T06:00:15.389Z,9.61
2023-01-06T06:02:42.021Z,9.60
2023-01-06T06:05:08.920Z,9.61
2023-01-06T06:07:37.408Z,9.64
2023-01-06T06:10:05.453Z,9.64
2023-01-06T06:12:32.087Z,9.71
2023-01-06T06:14:58.841Z,9.66
2023-01-06T06:17:25.524Z,9.62
2023-01-06T06:19:52.324Z,9.59
2023-01-06T06:22:19.025Z,9.64
2023-01-06T06:24:45.788Z,9.61
2023-01-06T06:27:12.474Z,9.57
2023-01-06T06:29:39.159Z,9.64
2023-01-06T06:32:05.840Z,9.57
2023-01-06T06:34:32.567Z,9.58
2023-01-06T06:36:59.172Z,9.61
2023-01-06T06:39:25.919Z,9.62
2023-01-06T06:41:52.873Z,9.58
2023-01-06T06:44:19.497Z,9.55
2023-01-06T06:46:46.244Z,9.60
2023-01-06T06:49:12.909Z,9.62
2023-01-06T06:51:39.614Z,9.58
2023-01-06T06:54:06.330Z,9.62
2023-01-06T06:56:33.249Z,9.60
2023-01-06T06:58:59.987Z,9.59
2023-01-06T07:01:28.026Z,9.62
2023-01-06T07:03:54.789Z,9.63
2023-01-06T07:06:24.098Z,9.62
2023-01-06T07:08:51.457Z,9.54
2023-01-06T07:11:18.695Z,9.59
2023-01-06T07:13:45.512Z,9.65
2023-01-06T07:16:12.347Z,9.60
2023-01-06T07:18:39.590Z,9.66
2023-01-06T07:21:06.896Z,9.64
2023-01-06T07:23:33.924Z,9.65
2023-01-06T07:26:02.283Z,9.67
2023-01-06T07:28:30.665Z,9.69
2023-01-06T07:30:57.644Z,9.67
2023-01-06T07:33:24.556Z,9.63
2023-01-06T07:35:55.757Z,9.63
2023-01-06T07:38:23.065Z,9.60
2023-01-06T07:40:50.332Z,9.60
2023-01-06T07:43:19.855Z,9.59
2023-01-06T07:45:48.231Z,9.60
2023-01-06T07:48:15.278Z,9.63
2023-01-06T07:50:42.047Z,9.61
2023-01-06T07:53:09.840Z,9.61
2023-01-06T07:55:36.609Z,9.64
2023-01-06T07:58:07.603Z,9.66
2023-01-06T08:00:35.096Z,9.64
2023-01-06T08:03:07.129Z,9.66
2023-01-06T08:05:41.549Z,9.67
2023-01-06T08:08:09.464Z,9.70
2023-01-06T08:10:39.968Z,9.72
2023-01-06T08:13:06.990Z,9.70
2023-01-06T08:15:34.029Z,9.79
2023-01-06T08:18:00.728Z,9.81
2023-01-06T08:20:27.497Z,9.83
2023-01-06T08:22:54.211Z,9.85
2023-01-06T08:25:20.939Z,9.80
2023-01-06T08:27:47.753Z,9.86
2023-01-06T08:30:14.583Z,9.85
2023-01-06T08:32:41.215Z,9.81
2023-01-06T08:35:08.145Z,9.84
2023-01-06T08:37:36.189Z,9.87
2023-01-06T08:40:02.914Z,9.89
2023-01-06T08:42:29.620Z,9.90
2023-01-06T08:44:56.666Z,9.95
2023-01-06T08:47:23.504Z,9.92
2023-01-06T08:49:50.196Z,9.95
2023-01-06T08:52:16.926Z,9.94
2023-01-06T08:54:46.495Z,9.92
2023-01-06T08:57:15.836Z,9.95
2023-01-06T08:59:42.924Z,9.99
2023-01-06T09:02:11.300Z,10.07
2023-01-06T09:04:38.260Z,10.13
2023-01-06T09:07:05.018Z,10.17
2023-01-06T09:09:31.713Z,10.20
2023-01-06T09:11:58.312Z,10.18
2023-01-06T09:14:25.052Z,10.28
2023-01-06T09:16:51.741Z,10.33
2023-01-06T09:19:20.592Z,10.33
2023-01-06T09:21:47.650Z,10.35
2023-01-06T09:24:15.254Z,10.34
2023-01-06T09:26:42.066Z,10.35
2023-01-06T09:29:09.244Z,10.40
2023-01-06T09:31:35.988Z,10.43
2023-01-06T09:34:03.478Z,10.33
2023-01-06T09:36:30.138Z,10.31
2023-01-06T09:38:56.739Z,10.32
2023-01-06T09:41:35.851Z,10.40
2023-01-06T09:44:14.818Z,10.52
2023-01-06T09:46:44.972Z,10.65
2023-01-06T09:49:22.724Z,10.77
2023-01-06T09:51:49.789Z,10.77
2023-01-06T09:54:26.765Z,10.76
2023-01-06T09:57:15.796Z,10.96
2023-01-06T09:59:50.751Z,10.84
2023-01-06T10:02:24.512Z,10.78
2023-01-06T10:04:51.181Z,10.73
2023-01-06T10:07:28.978Z,10.90
2023-01-06T10:10:04.244Z,10.98
2023-01-06T10:13:01.617Z,10.96
2023-01-06T10:15:53.256Z,11.02
2023-01-06T10:18:48.392Z,11.16
2023-01-06T10:21:25.666Z,11.16
2023-01-06T10:24:07.662Z,11.09
2023-01-06T10:26:45.409Z,11.15
2023-01-06T10:29:18.053Z,11.04
2023-01-06T10:31:46.876Z,10.99
2023-01-06T10:34:27.821Z,10.93
2023-01-06T10:37:39.472Z,10.91
2023-01-06T10:40:25.667Z,11.21
2023-01-06T10:43:04.018Z,11.23
2023-01-06T10:45:33.914Z,11.09
2023-01-06T10:48:02.184Z,11.11
2023-01-06T10:50:29.087Z,11.16
2023-01-06T10:52:55.838Z,11.18
2023-01-06T10:55:25.356Z,11.13
2023-01-06T10:57:54.969Z,11.05
2023-01-06T11:00:23.990Z,11.14
2023-01-06T11:02:53.412Z,11.10
2023-01-06T11:05:23.871Z,11.01
2023-01-06T11:07:57.438Z,11.08
2023-01-06T11:10:31.387Z,11.14
2023-01-06T11:12:59.597Z,11.11
2023-01-06T11:15:36.504Z,11.08
2023-01-06T11:18:05.270Z,11.11
2023-01-06T11:20:35.170Z,11.04
2023-01-06T11:23:20.675Z,11.05
2023-01-06T11:26:03.370Z,11.03
2023-01-06T11:28:30.904Z,11.09
2023-01-06T11:31:05.496Z,11.04
2023-01-06T11:33:35.142Z,10.93
2023-01-06T11:36:09.367Z,10.99
2023-01-06T11:38:48.777Z,11.12
2023-01-06T11:41:25.802Z,11.07
2023-01-06T11:43:56.344Z,10.98
2023-01-06T11:46:24.507Z,11.07
2023-01-06T11:49:40.735Z,11.07
2023-01-06T11:52:21.567Z,11.04
2023-01-06T11:54:57.211Z,11.04
2023-01-06T11:57:44.543Z,11.09
2023-01-06T12:00:43.306Z,10.99
2023-01-06T12:03:34.951Z,10.98
2023-01-06T12:06:04.470Z,10.92
2023-01-06T12:08:45.387Z,10.97
2023-01-06T12:11:25.889Z,10.96
2023-01-06T12:14:10.633Z,11.05
2023-01-06T12:16:49.961Z,11.08
2023-01-06T12:19:22.431Z,11.04
2023-01-06T12:21:49.807Z,11.06
2023-01-06T12:24:19.694Z,11.04
2023-01-06T12:26:46.640Z,11.01
2023-01-06T12:29:18.942Z,11.06
2023-01-06T12:31:56.072Z,11.12
2023-01-06T12:34:36.700Z,11.08
2023-01-06T12:37:30.641Z,11.19
2023-01-06T12:40:16.982Z,11.17
2023-01-06T12:42:51.917Z,11.24
2023-01-06T12:45:37.770Z,11.24
2023-01-06T12:48:16.349Z,11.25
2023-01-06T12:50:49.364Z,11.29
2023-01-06T12:53:28.146Z,11.35
2023-01-06T12:56:07.072Z,11.47
2023-01-06T12:59:11.205Z,11.46
2023-01-06T13:01:46.098Z,11.44
2023-01-06T13:04:41.777Z,11.49
2023-01-06T13:07:27.019Z,11.54
2023-01-06T13:10:03.935Z,11.66
2023-01-06T13:12:45.597Z,11.50
2023-01-06T13:15:25.318Z,11.43
2023-01-06T13:18:05.804Z,11.40
2023-01-06T13:20:46.577Z,11.50
2023-01-06T13:23:19.389Z,11.48
2023-01-06T13:26:13.355Z,11.44
2023-01-06T13:29:14.279Z,11.38
2023-01-06T13:32:04.780Z,11.48
2023-01-06T13:35:02.276Z,11.42
2023-01-06T13:37:37.699Z,11.42
2023-01-06T13:40:11.495Z,11.41
2023-01-06T13:43:03.297Z,11.50
2023-01-06T13:45:43.617Z,11.41
2023-01-06T13:48:17.655Z,11.46
2023-01-06T13:50:45.691Z,11.44
2023-01-06T13:53:17.555Z,11.43
2023-01-06T13:55:44.895Z,11.42
2023-01-06T13:58:29.120Z,11.37
2023-01-06T14:01:05.387Z,11.41
2023-01-06T14:03:33.036Z,11.34
2023-01-06T14:06:02.236Z,11.21
2023-01-06T14:08:33.124Z,11.24
2023-01-06T14:11:03.521Z,11.22
2023-01-06T14:13:38.723Z,11.23
2023-01-06T14:16:09.407Z,11.17
2023-01-06T14:18:40.558Z,11.11
2023-01-06T14:21:17.569Z,11.14
2023-01-06T14:24:00.475Z,11.09
2023-01-06T14:26:48.229Z,11.09
2023-01-06T14:30:13.329Z,11.18
2023-01-06T14:32:39.988Z,11.12
2023-01-06T14:35:13.165Z,11.06
2023-01-06T14:37:52.149Z,11.07
2023-01-06T14:40:25.736Z,11.04
2023-01-06T14:42:53.224Z,11.02
2023-01-06T14:45:27.724Z,11.01
2023-01-06T14:48:02.827Z,10.98
2023-01-06T14:50:46.183Z,10.93
2023-01-06T14:53:33.668Z,10.93
2023-01-06T14:56:00.818Z,10.92
2023-01-06T14:58:37.035Z,10.93
2023-01-06T15:01:06.110Z,10.92
2023-01-06T15:03:34.703Z,10.92
2023-01-06T15:06:20.143Z,10.90
2023-01-06T15:08:47.847Z,10.88
2023-01-06T15:11:23.689Z,10.85
2023-01-06T15:13:50.661Z,10.84
2023-01-06T15:16:20.852Z,10.85
2023-01-06T15:18:48.743Z,10.85
2023-01-06T15:21:15.768Z,10.82
2023-01-06T15:23:45.071Z,10.80
2023-01-06T15:26:20.246Z,10.79
2023-01-06T15:29:04.928Z,10.79
2023-01-06T15:31:37.237Z,10.76
2023-01-06T15:34:09.165Z,10.75
2023-01-06T15:36:39.702Z,10.72
2023-01-06T15:39:07.314Z,10.71
2023-01-06T15:41:34.428Z,10.71
2023-01-06T15:44:02.683Z,10.67
2023-01-06T15:46:40.895Z,10.63
2023-01-06T15:49:30.803Z,10.65
2023-01-06T15:52:03.015Z,10.65
2023-01-06T15:54:31.830Z,10.60
2023-01-06T15:57:15.247Z,10.59
2023-01-06T15:59:54.998Z,10.59
2023-01-06T16:02:25.289Z,10.59
2023-01-06T16:04:52.177Z,10.57
2023-01-06T16:07:31.816Z,10.56
2023-01-06T16:09:58.523Z,10.56
2023-01-06T16:12:25.982Z,10.50
2023-01-06T16:14:52.831Z,10.47
2023-01-06T16:17:45.592Z,10.44
2023-01-06T16:20:24.454Z,10.45
2023-01-06T16:22:55.265Z,10.41
2023-01-06T16:25:25.337Z,10.41
2023-01-06T16:27:55.202Z,10.41
2023-01-06T16:30:27.696Z,10.39
2023-01-06T16:32:55.464Z,10.42
2023-01-06T16:35:25.095Z,10.39
2023-01-06T16:37:52.586Z,10.38
2023-01-06T16:40:21.274Z,10.35
2023-01-06T16:42:49.207Z,10.31
2023-01-06T16:45:36.357Z,10.32
2023-01-06T16:48:03.237Z,10.25
2023-01-06T16:50:38.537Z,10.25
2023-01-06T16:53:15.563Z,10.22
2023-01-06T16:55:43.598Z,10.23
2023-01-06T16:58:18.087Z,10.24
2023-01-06T17:00:51.483Z,10.20
2023-01-06T17:03:25.821Z,10.13
2023-01-06T17:05:53.410Z,10.09
2023-01-06T17:08:37.020Z,10.03
2023-01-06T17:11:15.783Z,10.05
2023-01-06T17:13:50.050Z,10.02
2023-01-06T17:16:21.358Z,9.92
2023-01-06T17:18:56.794Z,9.85
2023-01-06T17:21:29.959Z,9.87
2023-01-06T17:24:11.657Z,9.84
2023-01-06T17:26:39.777Z,9.85
2023-01-06T17:29:15.874Z,9.78
2023-01-06T17:31:47.039Z,9.87
2023-01-06T17:34:21.467Z,9.94
2023-01-06T17:36:50.709Z,10.05
2023-01-06T17:39:26.292Z,10.10
2023-01-06T17:42:13.202Z,10.07
2023-01-06T17:44:51.414Z,10.10
2023-01-06T17:47:18.050Z,10.11
2023-01-06T17:49:49.781Z,10.11
2023-01-06T17:52:28.439Z,10.04
2023-01-06T17:55:29.783Z,10.03
2023-01-06T17:57:58.418Z,10.07
2023-01-06T18:00:29.749Z,10.05
2023-01-06T18:03:01.638Z,10.09
2023-01-06T18:05:28.806Z,10.13
2023-01-06T18:08:11.973Z,10.12
2023-01-06T18:10:43.242Z,10.09
2023-01-06T18:13:15.977Z,10.12
2023-01-06T18:15:44.242Z,10.07
2023-01-06T18:18:23.584Z,10.03
2023-01-06T18:21:01.055Z,9.99
2023-01-06T18:23:28.055Z,10.01
2023-01-06T18:26:01.808Z,9.93
2023-01-06T18:28:29.903Z,9.88
2023-01-06T18:30:58.925Z,9.84
2023-01-06T18:33:26.177Z,9.76
2023-01-06T18:35:57.626Z,9.80
2023-01-06T18:38:30.079Z,9.79
2023-01-06T18:40:56.790Z,9.83
2023-01-06T18:43:27.959Z,9.90
2023-01-06T18:45:58.111Z,9.87
2023-01-06T18:48:25.159Z,9.87
2023-01-06T18:50:52.319Z,9.88
2023-01-06T18:53:23.222Z,9.89
2023-01-06T18:55:55.097Z,9.90
2023-01-06T18:58:37.171Z,9.90
2023-01-06T19:01:22.287Z,9.87
2023-01-06T19:03:54.694Z,9.94
2023-01-06T19:06:42.754Z,9.92
2023-01-06T19:09:36.060Z,9.92
2023-01-06T19:12:08.757Z,9.96
2023-01-06T19:14:43.494Z,9.98
2023-01-06T19:17:16.168Z,9.99
2023-01-06T19:19:43.402Z,9.99
2023-01-06T19:22:18.922Z,10.03
2023-01-06T19:24:51.686Z,9.98
2023-01-06T19:27:32.744Z,9.96
2023-01-06T19:30:25.461Z,9.83
2023-01-06T19:32:52.298Z,9.91
2023-01-06T19:35:26.029Z,9.91
2023-01-06T19:38:05.628Z,9.88
2023-01-06T19:40:41.512Z,9.92
2023-01-06T19:46:17.778Z,9.94
2023-01-06T19:48:44.609Z,10.03
2023-01-06T19:51:27.659Z,10.10
2023-01-06T19:54:01.004Z,10.09
2023-01-06T19:56:33.409Z,10.04
2023-01-06T19:59:10.155Z,10.01
2023-01-06T20:01:36.921Z,10.05
2023-01-06T20:04:03.831Z,10.07
2023-01-06T20:06:30.476Z,10.10
2023-01-06T20:08:57.200Z,10.10
2023-01-06T20:11:24.770Z,9.99
2023-01-06T20:13:52.196Z,10.03
2023-01-06T20:16:19.017Z,10.00
2023-01-06T20:18:45.732Z,10.04
2023-01-06T20:21:12.435Z,10.08
2023-01-06T20:23:40.464Z,10.03
2023-01-06T20:26:07.204Z,10.00
2023-01-06T20:28:33.871Z,10.00
2023-01-06T20:31:00.575Z,9.96
2023-01-06T20:33:27.310Z,9.90
2023-01-06T20:35:54.041Z,9.82
2023-01-06T20:38:20.691Z,9.76
2023-01-06T20:40:47.449Z,9.79
2023-01-06T20:43:15.123Z,9.68
2023-01-06T20:45:44.047Z,9.71
2023-01-06T20:48:10.675Z,9.71
2023-01-06T20:50:39.173Z,9.73
2023-01-06T20:53:05.869Z,9.65
2023-01-06T20:55:32.515Z,9.69
2023-01-06T20:57:59.243Z,9.64
2023-01-06T21:00:25.907Z,9.62
2023-01-06T21:02:52.703Z,9.83
2023-01-06T21:05:21.045Z,9.71
2023-01-06T21:07:48.101Z,9.83
2023-01-06T21:10:14.825Z,9.87
2023-01-06T21:12:43.213Z,9.90
2023-01-06T21:15:11.368Z,9.88
2023-01-06T21:17:38.165Z,9.88
2023-01-06T21:20:06.422Z,9.86
2023-01-06T21:22:33.355Z,9.80
2023-01-06T21:25:00.158Z,9.99
2023-01-06T21:27:26.875Z,10.04
2023-01-06T21:29:53.509Z,10.03
2023-01-06T21:32:20.197Z,10.03
2023-01-06T21:34:47.021Z,10.08
2023-01-06T21:37:13.668Z,10.04
2023-01-06T21:39:40.311Z,10.11
2023-01-06T21:42:25.625Z,10.00
2023-01-06T21:44:52.372Z,10.02
2023-01-06T21:47:19.925Z,9.98
2023-01-06T21:49:46.872Z,9.96
2023-01-06T21:52:15.528Z,9.87
2023-01-06T21:54:45.278Z,10.04
2023-01-06T21:57:12.849Z,9.94
2023-01-06T21:59:40.069Z,9.91
2023-01-06T22:02:08.590Z,9.94
2023-01-06T22:04:35.392Z,9.86
2023-01-06T22:07:06.556Z,9.89
2023-01-06T22:09:33.303Z,9.99
2023-01-06T22:12:01.755Z,9.89
2023-01-06T22:14:28.583Z,9.90
2023-01-06T22:17:00.345Z,9.91
2023-01-06T22:19:27.994Z,9.81
2023-01-06T22:21:54.812Z,9.86
2023-01-06T22:24:22.626Z,9.85
2023-01-06T22:26:49.300Z,9.93
2023-01-06T22:29:15.904Z,9.88
2023-01-06T22:31:42.543Z,9.87
2023-01-06T22:34:09.324Z,9.85
2023-01-06T22:36:36.047Z,9.95
2023-01-06T22:39:02.709Z,9.92
2023-01-06T22:41:29.356Z,9.89
2023-01-06T22:43:56.097Z,9.95
2023-01-06T22:46:22.854Z,9.85
2023-01-06T22:48:49.660Z,9.92
2023-01-06T22:51:16.532Z,9.95
2023-01-06T22:53:43.163Z,10.04
2023-01-06T22:56:11.560Z,10.15
2023-01-06T22:58:39.867Z,10.01
2023-01-06T23:01:08.399Z,9.93
2023-01-06T23:03:35.775Z,9.94
2023-01-06T23:06:05.118Z,9.95
2023-01-06T23:08:33.856Z,10.09
2023-01-06T23:11:06.010Z,9.98
2023-01-06T23:13:33.938Z,9.93
2023-01-06T23:16:12.103Z,10.00
2023-01-06T23:18:40.878Z,10.02
2023-01-06T23:21:13.627Z,10.04
2023-01-06T23:23:41.796Z,9.98
2023-01-06T23:26:20.413Z,9.95
2023-01-06T23:28:47.082Z,9.95
2023-01-06T23:31:16.769Z,9.92
2023-01-06T23:33:48.664Z,9.95
2023-01-06T23:36:17.612Z,9.96
2023-01-06T23:38:44.567Z,9.95
2023-01-06T23:41:14.167Z,9.97
2023-01-06T23:43:41.204Z,10.00
2023-01-06T23:46:11.348Z,10.08
2023-01-06T23:48:38.740Z,10.11
2023-01-06T23:51:06.810Z,10.11
2023-01-06T23:53:35.008Z,10.07
2023-01-06T23:56:05.037Z,9.99
2023-01-06T23:58:34.849Z,9.95
